Time;durP1;ratioP1;P1;durP2;ratioP2;P2;SDS_P1;SDS_P2;PMS_P1;PMS_P2;Temp;Humidity;BMP_temperature;BMP_pressure;BME280_temperature;BME280_humidity;BME280_pressure;Samples;Min_cycle;Max_cycle;Signal;HPM_P1;HPM_P2
2022/01/27 00:04:17;;;;;;;;;88.50;73.25;;;;;;;;5020271;28;51145;-52
2022/01/27 00:07:01;;;;;;;;;84.50;74.25;;;;;;;;5020852;28;51388;-52
2022/01/27 00:10:04;;;;;;;;;78.00;69.00;;;;;;;;5020643;28;51252;-53
2022/01/27 00:12:48;;;;;;;;;93.50;75.00;;;;;;;;5020631;28;50971;-52
2022/01/27 00:15:33;;;;;;;;;80.75;71.75;;;;;;;;5020434;28;51473;-51
2022/01/27 00:18:18;;;;;;;;;78.75;70.25;;;;;;;;5020693;28;51444;-53
2022/01/27 00:21:02;;;;;;;;;80.25;72.25;;;;;;;;5020121;28;51070;-54
2022/01/27 00:23:47;;;;;;;;;81.25;73.75;;;;;;;;5020626;28;50963;-53
2022/01/27 00:26:31;;;;;;;;;80.25;71.50;;;;;;;;5020223;28;52191;-52
2022/01/27 00:29:15;;;;;;;;;82.25;71.25;;;;;;;;5020474;28;51162;-50
2022/01/27 00:32:00;;;;;;;;;84.50;74.50;;;;;;;;5017890;28;51068;-50
2022/01/27 00:34:44;;;;;;;;;80.25;70.00;;;;;;;;5019863;28;51070;-51
2022/01/27 00:37:28;;;;;;;;;81.50;71.50;;;;;;;;5016780;28;51216;-48
2022/01/27 00:40:13;;;;;;;;;84.75;69.25;;;;;;;;5019717;28;51397;-52
2022/01/27 00:42:57;;;;;;;;;78.00;65.50;;;;;;;;5019669;28;51461;-52
2022/01/27 00:45:42;;;;;;;;;80.25;71.50;;;;;;;;5019652;28;51307;-50
2022/01/27 00:48:26;;;;;;;;;79.50;68.75;;;;;;;;5019741;28;51067;-50
2022/01/27 00:51:12;;;;;;;;;78.75;63.00;;;;;;;;5014037;28;51145;-54
2022/01/27 00:54:10;;;;;;;;;78.50;69.25;;;;;;;;5018488;28;51447;-54
2022/01/27 01:35:28;;;;;;;;;81.00;70.00;;;;;;;;5019178;28;51432;-52
2022/01/27 01:38:13;;;;;;;;;76.00;62.75;;;;;;;;5018861;28;51130;-49
2022/01/27 01:40:58;;;;;;;;;82.00;69.50;;;;;;;;5019480;28;50982;-48
2022/01/27 01:43:42;;;;;;;;;80.75;75.75;;;;;;;;5019130;28;51282;-53
2022/01/27 01:46:26;;;;;;;;;82.00;72.00;;;;;;;;5019047;28;51158;-49
2022/01/27 01:49:11;;;;;;;;;75.25;65.25;;;;;;;;5018921;28;51521;-49
2022/01/27 01:51:56;;;;;;;;;91.25;81.25;;;;;;;;5019005;28;51264;-52
2022/01/27 01:54:40;;;;;;;;;103.00;91.00;;;;;;;;5019230;28;51081;-47
2022/01/27 01:57:25;;;;;;;;;109.50;93.00;;;;;;;;5018901;28;51151;-51
2022/01/27 02:00:10;;;;;;;;;103.25;92.25;;;;;;;;5019009;28;51269;-51
2022/01/27 02:02:54;;;;;;;;;104.50;93.00;;;;;;;;5018974;28;51058;-50
2022/01/27 02:05:45;;;;;;;;;108.25;95.50;;;;;;;;5019109;28;51086;-48
2022/01/27 02:20:23;;;;;;;;;131.50;118.25;;;;;;;;5015349;28;51059;-51
2022/01/27 02:23:09;;;;;;;;;147.75;126.75;;;;;;;;5016844;28;51249;-46
2022/01/27 02:25:53;;;;;;;;;151.25;137.75;;;;;;;;5018707;28;51264;-47
2022/01/27 02:28:37;;;;;;;;;150.25;131.00;;;;;;;;5022133;28;51098;-52
2022/01/27 02:31:22;;;;;;;;;166.50;143.25;;;;;;;;5023241;28;51225;-49
2022/01/27 02:34:07;;;;;;;;;179.50;158.50;;;;;;;;5021934;28;51185;-48
2022/01/27 02:36:51;;;;;;;;;172.75;150.75;;;;;;;;5022486;28;51142;-47
2022/01/27 02:39:35;;;;;;;;;189.25;163.75;;;;;;;;5021236;28;51085;-54
2022/01/27 02:42:19;;;;;;;;;188.50;162.25;;;;;;;;5022441;28;51118;-49
2022/01/27 02:45:04;;;;;;;;;189.25;171.00;;;;;;;;5022236;28;51080;-49
2022/01/27 02:47:48;;;;;;;;;193.75;175.50;;;;;;;;5022678;28;51324;-48
2022/01/27 02:50:33;;;;;;;;;200.75;173.50;;;;;;;;5022242;28;51199;-48
2022/01/27 02:53:17;;;;;;;;;220.00;187.50;;;;;;;;5021697;28;51233;-52
2022/01/27 02:56:02;;;;;;;;;228.00;201.00;;;;;;;;5022524;28;51256;-54
2022/01/27 02:58:49;;;;;;;;;233.00;205.50;;;;;;;;5021614;28;51507;-49
2022/01/27 03:01:33;;;;;;;;;231.25;200.25;;;;;;;;5022123;28;51564;-51
2022/01/27 03:04:18;;;;;;;;;230.25;207.50;;;;;;;;5021743;28;51141;-47
2022/01/27 03:07:04;;;;;;;;;224.50;200.00;;;;;;;;5019576;28;51238;-48
2022/01/27 03:09:48;;;;;;;;;227.75;200.75;;;;;;;;5022254;28;51158;-52
2022/01/27 03:12:37;;;;;;;;;234.75;205.50;;;;;;;;5021541;28;51171;-47
2022/01/27 03:15:21;;;;;;;;;232.75;210.25;;;;;;;;5018382;28;51062;-50
2022/01/27 03:18:05;;;;;;;;;240.75;223.75;;;;;;;;5021574;28;51222;-50
2022/01/27 03:20:50;;;;;;;;;251.50;222.25;;;;;;;;5021802;28;51026;-51
2022/01/27 03:23:35;;;;;;;;;238.00;213.25;;;;;;;;5018179;28;51566;-46
2022/01/27 03:26:20;;;;;;;;;227.00;202.25;;;;;;;;5019598;28;51123;-52
2022/01/27 03:29:04;;;;;;;;;234.75;206.25;;;;;;;;5021521;28;51681;-47
2022/01/27 03:31:49;;;;;;;;;223.25;201.50;;;;;;;;5021758;28;51204;-49
2022/01/27 03:34:33;;;;;;;;;240.75;207.25;;;;;;;;5021349;28;50999;-51
2022/01/27 03:37:17;;;;;;;;;232.25;207.00;;;;;;;;5021154;28;51008;-50
2022/01/27 03:40:03;;;;;;;;;237.50;213.00;;;;;;;;5020358;28;51123;-49
2022/01/27 03:43:01;;;;;;;;;234.50;206.25;;;;;;;;5020619;28;51313;-48
2022/01/27 03:45:46;;;;;;;;;247.75;215.75;;;;;;;;5015062;28;51430;-50
2022/01/27 03:48:31;;;;;;;;;232.00;204.00;;;;;;;;5021090;28;51074;-52
2022/01/27 03:51:15;;;;;;;;;217.00;183.50;;;;;;;;5020930;28;51142;-49
2022/01/27 03:53:59;;;;;;;;;234.25;200.25;;;;;;;;5020912;28;51091;-47
2022/01/27 03:56:44;;;;;;;;;252.00;221.00;;;;;;;;5019713;28;51216;-53
2022/01/27 03:59:29;;;;;;;;;238.50;208.00;;;;;;;;5019903;28;51559;-48
2022/01/27 04:02:13;;;;;;;;;246.25;220.50;;;;;;;;5020675;28;51429;-51
2022/01/27 04:04:58;;;;;;;;;256.50;221.75;;;;;;;;5020056;28;51429;-54
2022/01/27 04:07:42;;;;;;;;;248.75;215.50;;;;;;;;5020457;28;51133;-51
2022/01/27 04:10:26;;;;;;;;;231.75;215.75;;;;;;;;5021220;28;51036;-51
2022/01/27 04:13:11;;;;;;;;;223.50;195.75;;;;;;;;5020535;28;51486;-49
2022/01/27 04:15:55;;;;;;;;;224.50;199.00;;;;;;;;5020797;28;51186;-46
2022/01/27 04:18:39;;;;;;;;;204.00;177.00;;;;;;;;5020421;28;51169;-48
2022/01/27 04:21:24;;;;;;;;;210.00;183.75;;;;;;;;5019750;28;51066;-50
2022/01/27 04:24:10;;;;;;;;;202.50;178.00;;;;;;;;5019506;28;51497;-50
2022/01/27 04:27:03;;;;;;;;;204.75;177.50;;;;;;;;5020435;28;51427;-48
2022/01/27 04:29:48;;;;;;;;;185.75;170.50;;;;;;;;5017443;28;51437;-48
2022/01/27 04:32:40;;;;;;;;;197.00;169.50;;;;;;;;5019820;28;51080;-50
2022/01/27 04:35:27;;;;;;;;;194.25;168.00;;;;;;;;5002755;28;51129;-46
2022/01/27 04:41:23;;;;;;;;;185.00;169.75;;;;;;;;5020158;28;51193;-47
2022/01/27 04:44:24;;;;;;;;;184.25;170.50;;;;;;;;5019186;28;51178;-52
2022/01/27 04:47:14;;;;;;;;;171.25;149.50;;;;;;;;5019789;28;51169;-49
2022/01/27 04:49:59;;;;;;;;;157.75;141.25;;;;;;;;5019708;28;51470;-50
2022/01/27 04:52:46;;;;;;;;;174.25;153.50;;;;;;;;5020004;28;51485;-51
2022/01/27 04:55:30;;;;;;;;;175.00;152.75;;;;;;;;5020002;28;51226;-51
2022/01/27 04:58:19;;;;;;;;;169.75;151.00;;;;;;;;5018987;28;51149;-52
2022/01/27 05:01:04;;;;;;;;;173.00;150.50;;;;;;;;5017430;28;51023;-48
2022/01/27 05:03:56;;;;;;;;;170.00;147.00;;;;;;;;5018367;28;52116;-51
2022/01/27 05:06:40;;;;;;;;;166.25;150.75;;;;;;;;5014259;28;51058;-52
2022/01/27 05:09:32;;;;;;;;;169.00;143.25;;;;;;;;5018586;28;51165;-54
2022/01/27 05:12:27;;;;;;;;;170.00;146.75;;;;;;;;5019599;28;51107;-50
2022/01/27 05:15:12;;;;;;;;;151.00;135.25;;;;;;;;5015312;28;51070;-49
2022/01/27 05:17:56;;;;;;;;;134.00;126.00;;;;;;;;5019669;28;51201;-53
2022/01/27 05:20:40;;;;;;;;;154.50;137.75;;;;;;;;5019338;28;51390;-50
2022/01/27 05:23:25;;;;;;;;;161.50;141.25;;;;;;;;5019464;28;51479;-49
2022/01/27 05:26:09;;;;;;;;;154.00;141.00;;;;;;;;5019847;28;51000;-56
2022/01/27 05:28:54;;;;;;;;;158.25;140.00;;;;;;;;5017962;28;51192;-58
2022/01/27 05:31:38;;;;;;;;;164.00;145.75;;;;;;;;5019031;28;51122;-55
2022/01/27 05:34:23;;;;;;;;;157.75;132.00;;;;;;;;5019384;28;51058;-54
2022/01/27 05:37:07;;;;;;;;;160.75;136.75;;;;;;;;5019442;28;51125;-56
2022/01/27 05:39:51;;;;;;;;;110.25;104.75;;;;;;;;5019055;28;51465;-53
2022/01/27 05:42:36;;;;;;;;;147.50;129.75;;;;;;;;5019275;28;51208;-54
2022/01/27 05:45:21;;;;;;;;;142.25;123.25;;;;;;;;5019111;28;51346;-49
2022/01/27 05:48:05;;;;;;;;;140.75;126.75;;;;;;;;5016185;28;51118;-56
2022/01/27 05:50:50;;;;;;;;;134.75;121.00;;;;;;;;5019260;28;51084;-51
2022/01/27 05:53:36;;;;;;;;;140.75;125.50;;;;;;;;5017235;28;51091;-58
2022/01/27 05:56:19;;;;;;;;;143.75;132.00;;;;;;;;5003807;28;51110;-56
2022/01/27 05:59:04;;;;;;;;;142.50;123.25;;;;;;;;5017057;28;51224;-54
2022/01/27 06:01:48;;;;;;;;;137.00;122.25;;;;;;;;5014068;28;51089;-57
2022/01/27 06:04:33;;;;;;;;;128.25;119.25;;;;;;;;5013703;28;51326;-58
2022/01/27 06:07:17;;;;;;;;;151.25;134.75;;;;;;;;5012358;28;51089;-53
2022/01/27 06:10:02;;;;;;;;;140.75;122.50;;;;;;;;5018187;28;51589;-56
2022/01/27 06:12:48;;;;;;;;;130.00;115.00;;;;;;;;5018510;28;52322;-52
2022/01/27 06:15:32;;;;;;;;;142.50;128.50;;;;;;;;5016632;28;51149;-52
2022/01/27 06:18:16;;;;;;;;;149.00;129.75;;;;;;;;5017936;28;51410;-53
2022/01/27 06:21:03;;;;;;;;;155.25;138.50;;;;;;;;5018322;28;51188;-56
2022/01/27 06:23:48;;;;;;;;;145.25;135.00;;;;;;;;5014699;28;51115;-53
2022/01/27 06:26:33;;;;;;;;;152.75;135.75;;;;;;;;5017930;28;51153;-57
2022/01/27 06:29:17;;;;;;;;;150.50;129.75;;;;;;;;5001996;28;51547;-51
2022/01/27 06:32:02;;;;;;;;;144.00;132.75;;;;;;;;5017308;28;51023;-52
2022/01/27 06:34:47;;;;;;;;;143.75;127.25;;;;;;;;5017944;28;51094;-53
2022/01/27 06:37:31;;;;;;;;;156.25;134.50;;;;;;;;5017358;28;51230;-56
2022/01/27 06:40:16;;;;;;;;;155.00;136.75;;;;;;;;5017554;28;51083;-56
2022/01/27 06:43:00;;;;;;;;;152.75;138.25;;;;;;;;5015610;28;51463;-52
2022/01/27 06:45:44;;;;;;;;;163.75;139.75;;;;;;;;5016877;28;51214;-53
2022/01/27 06:48:29;;;;;;;;;172.50;148.00;;;;;;;;5015949;28;51166;-51
2022/01/27 06:51:13;;;;;;;;;163.00;146.75;;;;;;;;5018795;28;51255;-52
2022/01/27 06:53:58;;;;;;;;;164.00;136.50;;;;;;;;5017845;28;51442;-54
2022/01/27 06:56:42;;;;;;;;;164.25;142.50;;;;;;;;5015394;28;51124;-54
2022/01/27 06:59:27;;;;;;;;;155.25;133.50;;;;;;;;5015643;28;51043;-52
2022/01/27 07:02:13;;;;;;;;;148.00;131.25;;;;;;;;5017461;28;51058;-56
2022/01/27 07:05:00;;;;;;;;;171.00;151.75;;;;;;;;5018013;28;50972;-51
2022/01/27 07:07:45;;;;;;;;;143.75;124.75;;;;;;;;5011707;28;51643;-56
2022/01/27 07:10:29;;;;;;;;;161.50;144.75;;;;;;;;5017045;28;51254;-57
2022/01/27 07:13:14;;;;;;;;;149.25;132.00;;;;;;;;5017981;28;51175;-48
2022/01/27 07:15:58;;;;;;;;;145.75;129.50;;;;;;;;5020593;28;51205;-53
2022/01/27 07:18:43;;;;;;;;;156.00;133.25;;;;;;;;5016441;28;51612;-53
2022/01/27 07:21:27;;;;;;;;;150.75;138.00;;;;;;;;5021159;28;51206;-54
2022/01/27 07:24:11;;;;;;;;;155.50;134.50;;;;;;;;5020933;28;51118;-55
2022/01/27 07:26:56;;;;;;;;;154.00;133.00;;;;;;;;5021228;28;51393;-51
2022/01/27 07:29:40;;;;;;;;;152.50;135.75;;;;;;;;5021651;28;51003;-58
2022/01/27 07:32:25;;;;;;;;;144.25;130.75;;;;;;;;5020760;28;51477;-54
2022/01/27 07:35:09;;;;;;;;;147.25;131.50;;;;;;;;5021190;28;51169;-53
2022/01/27 07:37:54;;;;;;;;;149.50;128.00;;;;;;;;5020829;28;51066;-53
2022/01/27 07:40:38;;;;;;;;;145.25;131.00;;;;;;;;5020724;28;51051;-56
2022/01/27 07:43:22;;;;;;;;;139.75;130.50;;;;;;;;5020319;28;51158;-55
2022/01/27 07:46:07;;;;;;;;;154.00;133.50;;;;;;;;5020642;28;51078;-54
2022/01/27 07:48:52;;;;;;;;;145.25;123.00;;;;;;;;5020838;28;51164;-56
2022/01/27 07:51:36;;;;;;;;;145.75;129.25;;;;;;;;5020658;28;51109;-53
2022/01/27 07:54:21;;;;;;;;;152.75;130.50;;;;;;;;5014237;28;51319;-57
2022/01/27 07:57:05;;;;;;;;;160.75;140.75;;;;;;;;5020309;28;51495;-56
2022/01/27 07:59:50;;;;;;;;;155.50;136.75;;;;;;;;5016415;28;51102;-52
2022/01/27 08:02:34;;;;;;;;;153.75;134.25;;;;;;;;5014527;28;51318;-54
2022/01/27 08:05:20;;;;;;;;;153.50;136.75;;;;;;;;5020734;28;51149;-52
2022/01/27 08:08:05;;;;;;;;;158.25;147.25;;;;;;;;5015984;28;51485;-57
2022/01/27 08:10:49;;;;;;;;;156.25;134.50;;;;;;;;5019589;28;52582;-57
2022/01/27 08:13:33;;;;;;;;;144.50;132.50;;;;;;;;5020478;28;51145;-52
2022/01/27 08:16:18;;;;;;;;;153.75;134.50;;;;;;;;5020261;28;51368;-54
2022/01/27 08:19:02;;;;;;;;;154.50;135.50;;;;;;;;5018519;28;51162;-51
2022/01/27 08:21:47;;;;;;;;;145.00;135.25;;;;;;;;5013270;28;52167;-53
2022/01/27 08:24:31;;;;;;;;;138.50;127.00;;;;;;;;5017829;28;51134;-55
2022/01/27 08:27:19;;;;;;;;;135.00;124.75;;;;;;;;5013713;28;51194;-57
2022/01/27 08:30:05;;;;;;;;;151.75;135.25;;;;;;;;5018673;28;51127;-55
2022/01/27 08:32:57;;;;;;;;;135.75;121.50;;;;;;;;5019914;28;51110;-55
2022/01/27 08:35:41;;;;;;;;;130.25;112.50;;;;;;;;5019399;28;51172;-57
2022/01/27 08:38:28;;;;;;;;;139.00;128.75;;;;;;;;5019909;28;51175;-58
2022/01/27 08:41:12;;;;;;;;;135.25;121.25;;;;;;;;5019201;28;51201;-55
2022/01/27 08:43:57;;;;;;;;;137.00;122.75;;;;;;;;5019100;28;51039;-58
2022/01/27 08:46:41;;;;;;;;;142.25;125.50;;;;;;;;5014375;28;51420;-56
2022/01/27 08:49:27;;;;;;;;;142.75;128.50;;;;;;;;5014913;28;51098;-51
2022/01/27 08:52:11;;;;;;;;;138.00;126.75;;;;;;;;5015604;28;51196;-57
2022/01/27 08:54:55;;;;;;;;;136.75;124.25;;;;;;;;5019747;28;51133;-52
2022/01/27 08:57:40;;;;;;;;;133.50;114.25;;;;;;;;5015683;28;51537;-54
2022/01/27 09:00:24;;;;;;;;;141.25;127.00;;;;;;;;5018807;28;51121;-55
2022/01/27 09:03:09;;;;;;;;;133.75;113.50;;;;;;;;5019156;28;51501;-56
2022/01/27 09:05:53;;;;;;;;;128.75;120.00;;;;;;;;5012455;28;51575;-54
2022/01/27 09:08:37;;;;;;;;;110.50;95.50;;;;;;;;5018680;28;51083;-50
2022/01/27 09:11:22;;;;;;;;;133.50;116.50;;;;;;;;5011183;28;51525;-54
2022/01/27 09:14:06;;;;;;;;;137.50;120.75;;;;;;;;5018615;28;51118;-56
2022/01/27 09:16:50;;;;;;;;;133.25;115.50;;;;;;;;5013885;28;51089;-56
2022/01/27 09:19:39;;;;;;;;;132.50;120.50;;;;;;;;5015408;28;52141;-55
2022/01/27 09:22:23;;;;;;;;;139.50;125.75;;;;;;;;5014709;28;51511;-51
2022/01/27 09:25:19;;;;;;;;;134.50;122.00;;;;;;;;5014752;28;51114;-54
2022/01/27 09:28:04;;;;;;;;;125.00;117.50;;;;;;;;5015971;28;51167;-58
2022/01/27 09:30:48;;;;;;;;;130.50;121.50;;;;;;;;5014839;28;51056;-54
2022/01/27 09:33:32;;;;;;;;;131.75;118.50;;;;;;;;5015207;28;51474;-56
2022/01/27 09:36:17;;;;;;;;;134.25;124.00;;;;;;;;5015421;28;51465;-55
2022/01/27 09:39:01;;;;;;;;;123.25;110.75;;;;;;;;5017245;28;51530;-58
2022/01/27 09:41:47;;;;;;;;;121.50;111.00;;;;;;;;5019104;28;51063;-54
2022/01/27 09:44:33;;;;;;;;;130.75;116.00;;;;;;;;5017513;28;51121;-54
2022/01/27 09:47:17;;;;;;;;;135.25;118.25;;;;;;;;5016609;28;51368;-55
2022/01/27 09:50:22;;;;;;;;;133.75;121.25;;;;;;;;5015227;28;51047;-55
2022/01/27 09:53:06;;;;;;;;;134.50;121.50;;;;;;;;5014285;28;51360;-58
2022/01/27 09:55:50;;;;;;;;;125.50;113.50;;;;;;;;5008854;28;51110;-56
2022/01/27 09:58:35;;;;;;;;;141.00;131.25;;;;;;;;5016701;28;51130;-54
2022/01/27 10:01:19;;;;;;;;;125.75;117.50;;;;;;;;5012415;28;51566;-56
2022/01/27 10:04:07;;;;;;;;;129.75;117.75;;;;;;;;5016308;28;51510;-54
2022/01/27 10:06:58;;;;;;;;;143.25;129.75;;;;;;;;5017689;28;51128;-56
2022/01/27 10:10:02;;;;;;;;;144.25;130.25;;;;;;;;5018765;28;51224;-56
2022/01/27 10:12:50;;;;;;;;;126.75;121.00;;;;;;;;5012534;28;51870;-59
2022/01/27 10:15:42;;;;;;;;;129.00;117.25;;;;;;;;5010725;28;51173;-58
2022/01/27 10:18:27;;;;;;;;;133.00;122.75;;;;;;;;5012968;28;51295;-55
2022/01/27 10:21:12;;;;;;;;;133.25;124.25;;;;;;;;5016626;28;51008;-54
2022/01/27 10:23:57;;;;;;;;;133.50;122.75;;;;;;;;5012539;28;51067;-56
2022/01/27 10:26:45;;;;;;;;;131.00;118.75;;;;;;;;5013138;28;51160;-56
2022/01/27 10:29:47;;;;;;;;;130.25;114.50;;;;;;;;5017742;28;51081;-57
2022/01/27 10:32:45;;;;;;;;;112.25;98.50;;;;;;;;5017629;28;51353;-54
2022/01/27 10:35:30;;;;;;;;;127.00;112.50;;;;;;;;5013805;28;51146;-55
2022/01/27 10:38:16;;;;;;;;;132.25;120.75;;;;;;;;5016599;28;51474;-51
2022/01/27 10:41:05;;;;;;;;;131.00;116.25;;;;;;;;5018210;28;53515;-55
2022/01/27 10:43:49;;;;;;;;;129.75;115.00;;;;;;;;5012333;28;51320;-56
2022/01/27 10:46:34;;;;;;;;;128.00;118.00;;;;;;;;5017340;28;51142;-52
2022/01/27 10:49:28;;;;;;;;;124.50;117.00;;;;;;;;5020918;28;51015;-55
2022/01/27 10:52:13;;;;;;;;;126.25;119.50;;;;;;;;5019762;28;51044;-55
2022/01/27 10:55:00;;;;;;;;;118.25;109.50;;;;;;;;5021277;28;51115;-55
2022/01/27 10:57:49;;;;;;;;;123.50;107.50;;;;;;;;5019866;28;51127;-53
2022/01/27 11:00:36;;;;;;;;;130.25;120.25;;;;;;;;5022364;28;51290;-55
2022/01/27 11:03:21;;;;;;;;;125.25;111.00;;;;;;;;5021257;28;51095;-55
2022/01/27 11:06:09;;;;;;;;;121.25;109.25;;;;;;;;5020791;28;51174;-56
2022/01/27 11:08:55;;;;;;;;;119.25;107.75;;;;;;;;5022425;28;51896;-52
2022/01/27 11:11:40;;;;;;;;;102.75;91.25;;;;;;;;5020681;28;51138;-54
2022/01/27 11:14:25;;;;;;;;;96.50;92.25;;;;;;;;5022190;28;51086;-56
2022/01/27 11:17:15;;;;;;;;;115.75;101.00;;;;;;;;5021949;28;51082;-54
2022/01/27 11:23:12;;;;;;;;;90.00;82.25;;;;;;;;5021255;28;51144;-55
2022/01/27 11:25:57;;;;;;;;;106.00;93.00;;;;;;;;5017346;28;51047;-54
2022/01/27 11:28:42;;;;;;;;;105.50;97.00;;;;;;;;5012822;28;51406;-55
2022/01/27 11:31:27;;;;;;;;;101.00;95.25;;;;;;;;5017998;28;52139;-52
2022/01/27 11:34:11;;;;;;;;;109.75;100.25;;;;;;;;5015374;28;51221;-55
2022/01/27 11:37:04;;;;;;;;;113.50;103.50;;;;;;;;5017122;28;51174;-56
2022/01/27 11:39:50;;;;;;;;;105.75;89.25;;;;;;;;5000053;28;51169;-53
2022/01/27 11:42:35;;;;;;;;;103.00;91.75;;;;;;;;5020674;28;51207;-58
2022/01/27 11:45:22;;;;;;;;;101.75;95.50;;;;;;;;5016907;28;51144;-56
2022/01/27 11:48:15;;;;;;;;;101.00;89.50;;;;;;;;5020207;28;51111;-57
2022/01/27 11:51:07;;;;;;;;;105.50;93.25;;;;;;;;5019789;28;51147;-55
2022/01/27 11:53:53;;;;;;;;;108.75;100.00;;;;;;;;5017122;28;51488;-53
2022/01/27 11:56:38;;;;;;;;;102.75;90.75;;;;;;;;5004775;28;51547;-52
2022/01/27 11:59:36;;;;;;;;;97.50;89.00;;;;;;;;5003004;28;51290;-56
2022/01/27 12:02:21;;;;;;;;;97.50;83.25;;;;;;;;5020111;28;51102;-50
2022/01/27 12:05:12;;;;;;;;;97.50;81.75;;;;;;;;5019577;28;51101;-57
2022/01/27 12:08:09;;;;;;;;;88.50;79.75;;;;;;;;5020205;28;51193;-52
2022/01/27 12:11:02;;;;;;;;;94.75;82.75;;;;;;;;5011017;28;51512;-58
2022/01/27 12:13:50;;;;;;;;;94.75;83.00;;;;;;;;5009031;28;52359;-56
2022/01/27 12:19:18;;;;;;;;;78.75;69.00;;;;;;;;5014165;28;51206;-53
2022/01/27 12:22:06;;;;;;;;;85.75;76.50;;;;;;;;5015692;28;51202;-54
2022/01/27 12:24:51;;;;;;;;;90.75;80.25;;;;;;;;5018143;28;51392;-55
2022/01/27 12:27:37;;;;;;;;;74.75;64.50;;;;;;;;5020346;28;51102;-53
2022/01/27 12:30:22;;;;;;;;;71.50;60.50;;;;;;;;5016364;28;51253;-52
2022/01/27 12:33:06;;;;;;;;;82.50;71.25;;;;;;;;5014077;28;51326;-52
2022/01/27 12:35:54;;;;;;;;;84.25;75.25;;;;;;;;5011146;28;51456;-49
2022/01/27 12:38:38;;;;;;;;;91.00;82.50;;;;;;;;5022287;28;52310;-50
2022/01/27 12:41:23;;;;;;;;;85.00;74.75;;;;;;;;5019363;28;51115;-48
2022/01/27 12:44:08;;;;;;;;;91.25;82.25;;;;;;;;5014555;28;51533;-55
2022/01/27 12:47:10;;;;;;;;;87.75;81.00;;;;;;;;5017048;28;51130;-53
2022/01/27 12:50:07;;;;;;;;;90.25;79.00;;;;;;;;5018123;28;51254;-49
2022/01/27 12:52:57;;;;;;;;;97.50;88.00;;;;;;;;5018635;28;51366;-51
2022/01/27 12:55:42;;;;;;;;;90.50;82.00;;;;;;;;5019221;28;51139;-50
2022/01/27 12:58:29;;;;;;;;;81.25;73.50;;;;;;;;5014782;28;51386;-50
2022/01/27 13:01:13;;;;;;;;;80.50;73.00;;;;;;;;5018810;28;51401;-52
2022/01/27 13:04:01;;;;;;;;;85.75;69.25;;;;;;;;5018346;28;51114;-52
2022/01/27 13:06:51;;;;;;;;;88.00;71.50;;;;;;;;5012027;28;51106;-52
2022/01/27 13:09:38;;;;;;;;;95.50;84.50;;;;;;;;4997855;28;51340;-55
2022/01/27 13:12:28;;;;;;;;;81.75;74.00;;;;;;;;5015358;28;51207;-52
2022/01/27 13:15:16;;;;;;;;;73.25;60.00;;;;;;;;5018901;28;51636;-53
2022/01/27 13:18:10;;;;;;;;;75.50;60.25;;;;;;;;5018857;28;51074;-57
2022/01/27 13:20:57;;;;;;;;;77.75;67.75;;;;;;;;5018612;28;51184;-51
2022/01/27 13:23:46;;;;;;;;;80.50;68.00;;;;;;;;5017365;28;51149;-54
2022/01/27 13:26:30;;;;;;;;;69.50;55.50;;;;;;;;5018060;28;51529;-52
2022/01/27 13:29:15;;;;;;;;;72.75;58.75;;;;;;;;5016954;28;51102;-55
2022/01/27 13:32:01;;;;;;;;;82.50;67.50;;;;;;;;5019034;28;51098;-56
2022/01/27 13:34:49;;;;;;;;;73.75;64.25;;;;;;;;5018449;28;51542;-52
2022/01/27 13:37:34;;;;;;;;;75.50;65.25;;;;;;;;5018053;28;51087;-51
2022/01/27 13:43:36;;;;;;;;;75.00;65.00;;;;;;;;5015965;28;51189;-53
2022/01/27 13:46:39;;;;;;;;;74.00;62.75;;;;;;;;5017719;28;51367;-53
2022/01/27 13:49:27;;;;;;;;;70.25;56.75;;;;;;;;5017859;28;51264;-57
2022/01/27 13:52:16;;;;;;;;;69.25;54.50;;;;;;;;5018039;28;51105;-56
2022/01/27 13:55:06;;;;;;;;;72.00;59.00;;;;;;;;5016848;28;51244;-54
2022/01/27 13:58:00;;;;;;;;;70.25;55.50;;;;;;;;5002325;28;51126;-56
2022/01/27 14:00:51;;;;;;;;;72.00;59.25;;;;;;;;5016202;28;51643;-56
2022/01/27 14:03:43;;;;;;;;;76.25;64.75;;;;;;;;5014741;28;51249;-50
2022/01/27 14:06:27;;;;;;;;;70.25;57.25;;;;;;;;5016712;28;51566;-59
2022/01/27 14:09:18;;;;;;;;;70.50;60.25;;;;;;;;5016823;28;51157;-54
2022/01/27 14:12:05;;;;;;;;;84.25;66.25;;;;;;;;5017300;28;51038;-53
2022/01/27 14:14:51;;;;;;;;;80.50;65.25;;;;;;;;5016639;28;51287;-54
2022/01/27 14:17:35;;;;;;;;;76.50;65.25;;;;;;;;5017695;28;51044;-55
2022/01/27 14:20:19;;;;;;;;;72.50;60.50;;;;;;;;5015839;28;51065;-52
2022/01/27 14:23:21;;;;;;;;;76.25;65.75;;;;;;;;5019837;28;50941;-50
2022/01/27 14:26:07;;;;;;;;;74.50;62.50;;;;;;;;5017296;28;51069;-52
2022/01/27 14:28:52;;;;;;;;;74.00;62.50;;;;;;;;5015973;28;51075;-54
2022/01/27 14:31:37;;;;;;;;;71.00;59.25;;;;;;;;5020958;28;52642;-55
2022/01/27 14:34:28;;;;;;;;;74.25;53.75;;;;;;;;5018689;28;51157;-53
2022/01/27 14:37:12;;;;;;;;;70.25;55.75;;;;;;;;5022428;28;51027;-54
2022/01/27 14:39:57;;;;;;;;;67.75;52.25;;;;;;;;5022227;28;51172;-54
2022/01/27 14:42:41;;;;;;;;;71.00;59.00;;;;;;;;5021887;28;51531;-53
2022/01/27 14:45:26;;;;;;;;;59.25;45.25;;;;;;;;5017326;28;51176;-50
2022/01/27 14:48:10;;;;;;;;;72.25;56.50;;;;;;;;5022417;28;51286;-52
2022/01/27 14:50:57;;;;;;;;;71.50;58.00;;;;;;;;5021450;28;51095;-52
2022/01/27 14:53:41;;;;;;;;;66.50;55.25;;;;;;;;5021219;28;51125;-57
2022/01/27 14:56:26;;;;;;;;;65.50;49.00;;;;;;;;5010691;28;51755;-54
2022/01/27 14:59:10;;;;;;;;;63.25;50.75;;;;;;;;5022415;28;51447;-51
2022/01/27 15:01:55;;;;;;;;;69.50;56.25;;;;;;;;5019753;28;51213;-58
2022/01/27 15:04:39;;;;;;;;;71.50;56.75;;;;;;;;5018121;28;51193;-56
2022/01/27 15:07:23;;;;;;;;;72.50;58.25;;;;;;;;5018828;28;51659;-57
2022/01/27 15:10:09;;;;;;;;;67.25;51.25;;;;;;;;5020811;28;51227;-58
2022/01/27 15:12:54;;;;;;;;;69.00;53.75;;;;;;;;5020145;28;51212;-52
2022/01/27 15:18:49;;;;;;;;;70.75;53.75;;;;;;;;4990798;28;51090;-55
2022/01/27 15:21:34;;;;;;;;;72.50;59.50;;;;;;;;5021177;28;51499;-55
2022/01/27 15:24:20;;;;;;;;;72.25;59.50;;;;;;;;5014836;28;51177;-52
2022/01/27 15:27:05;;;;;;;;;76.00;60.00;;;;;;;;5019212;28;51256;-51
2022/01/27 15:29:50;;;;;;;;;69.50;55.00;;;;;;;;5021048;28;51075;-55
2022/01/27 15:32:34;;;;;;;;;68.50;54.00;;;;;;;;5020546;28;51039;-56
2022/01/27 15:35:19;;;;;;;;;72.75;60.25;;;;;;;;5020927;28;51107;-54
2022/01/27 15:38:03;;;;;;;;;72.25;56.25;;;;;;;;5019838;28;51091;-53
2022/01/27 15:40:48;;;;;;;;;66.25;55.50;;;;;;;;5018720;28;51161;-50
2022/01/27 15:43:32;;;;;;;;;70.50;56.25;;;;;;;;5019484;28;51431;-48
2022/01/27 15:46:17;;;;;;;;;71.00;56.75;;;;;;;;5020698;28;51627;-56
2022/01/27 15:49:01;;;;;;;;;72.00;55.50;;;;;;;;5016613;28;51169;-47
2022/01/27 15:51:45;;;;;;;;;71.50;57.25;;;;;;;;5020781;28;51441;-56
2022/01/27 15:54:30;;;;;;;;;68.75;55.50;;;;;;;;5020208;28;51120;-53
2022/01/27 15:57:15;;;;;;;;;71.50;55.25;;;;;;;;5012702;28;51498;-53
2022/01/27 15:59:59;;;;;;;;;68.50;51.00;;;;;;;;5016299;28;51063;-52
2022/01/27 16:02:48;;;;;;;;;72.25;58.25;;;;;;;;5020092;28;51963;-49
2022/01/27 16:05:32;;;;;;;;;66.00;53.75;;;;;;;;5018116;28;51458;-54
2022/01/27 16:08:16;;;;;;;;;72.25;56.25;;;;;;;;5018458;28;51099;-55
2022/01/27 16:11:01;;;;;;;;;71.25;55.25;;;;;;;;5019513;28;51475;-54
2022/01/27 16:13:45;;;;;;;;;71.50;57.00;;;;;;;;5011921;28;51145;-54
2022/01/27 16:16:30;;;;;;;;;70.00;54.00;;;;;;;;5016580;28;51353;-54
2022/01/27 16:19:14;;;;;;;;;71.75;56.25;;;;;;;;5019187;28;51180;-50
2022/01/27 16:21:59;;;;;;;;;71.75;54.50;;;;;;;;5019900;28;51526;-53
2022/01/27 16:24:44;;;;;;;;;72.50;61.25;;;;;;;;5015661;28;51539;-47
2022/01/27 16:27:28;;;;;;;;;75.75;62.25;;;;;;;;5019448;28;51141;-55
2022/01/27 16:30:13;;;;;;;;;69.50;52.25;;;;;;;;5017334;28;51118;-51
2022/01/27 16:32:57;;;;;;;;;68.75;56.50;;;;;;;;5019903;28;51156;-54
2022/01/27 16:35:41;;;;;;;;;71.00;53.25;;;;;;;;5019244;28;51955;-53
2022/01/27 16:38:27;;;;;;;;;70.75;58.25;;;;;;;;5019413;28;51151;-54
2022/01/27 16:41:11;;;;;;;;;73.50;61.75;;;;;;;;5016840;28;51066;-53
2022/01/27 16:43:56;;;;;;;;;70.50;60.00;;;;;;;;5017658;28;51579;-54
2022/01/27 16:46:40;;;;;;;;;72.00;57.75;;;;;;;;5018348;28;51067;-52
2022/01/27 16:49:25;;;;;;;;;76.00;61.50;;;;;;;;5014227;28;51192;-53
2022/01/27 16:52:10;;;;;;;;;74.25;61.00;;;;;;;;5016664;28;51465;-54
2022/01/27 16:54:54;;;;;;;;;74.00;64.75;;;;;;;;5016894;28;51378;-51
2022/01/27 16:57:39;;;;;;;;;76.50;60.50;;;;;;;;5017798;28;51125;-51